sensor_id;sensor_type;location;lat;lon;timestamp;pressure;altitude;pressure_sealevel;temperature;humidity
74270;BME280;62754;48.252;11.654;2023-04-15T00:02:00;95095.81;;;5.19;89.59
74270;BME280;62754;48.252;11.654;2023-04-15T00:04:28;95089.88;;;5.29;90.31
74270;BME280;62754;48.252;11.654;2023-04-15T00:06:53;95094.16;;;5.29;89.19
74270;BME280;62754;48.252;11.654;2023-04-15T00:09:22;95091.16;;;5.35;89.50
74270;BME280;62754;48.252;11.654;2023-04-15T00:11:49;95092.34;;;5.31;89.56
74270;BME280;62754;48.252;11.654;2023-04-15T00:14:17;95096.75;;;5.40;89.38
74270;BME280;62754;48.252;11.654;2023-04-15T00:16:45;95092.44;;;5.41;89.52
74270;BME280;62754;48.252;11.654;2023-04-15T00:19:11;95095.94;;;5.40;88.87
74270;BME280;62754;48.252;11.654;2023-04-15T00:21:39;95091.84;;;5.37;89.05
74270;BME280;62754;48.252;11.654;2023-04-15T00:24:09;95089.34;;;5.48;88.83
74270;BME280;62754;48.252;11.654;2023-04-15T00:26:35;95079.22;;;5.47;88.75
74270;BME280;62754;48.252;11.654;2023-04-15T00:29:01;95078.28;;;5.48;89.04
74270;BME280;62754;48.252;11.654;2023-04-15T00:31:29;95075.75;;;5.37;89.58
74270;BME280;62754;48.252;11.654;2023-04-15T00:33:57;95077.34;;;5.49;88.88
74270;BME280;62754;48.252;11.654;2023-04-15T00:36:25;95069.09;;;5.45;88.45
74270;BME280;62754;48.252;11.654;2023-04-15T00:38:50;95071.22;;;5.40;89.00
74270;BME280;62754;48.252;11.654;2023-04-15T00:41:20;95059.94;;;5.32;89.71
74270;BME280;62754;48.252;11.654;2023-04-15T00:43:50;95062.84;;;5.27;89.98
74270;BME280;62754;48.252;11.654;2023-04-15T00:46:16;95064.72;;;5.36;89.32
74270;BME280;62754;48.252;11.654;2023-04-15T00:48:43;95077.25;;;5.39;89.58
74270;BME280;62754;48.252;11.654;2023-04-15T00:51:09;95061.81;;;5.52;88.95
74270;BME280;62754;48.252;11.654;2023-04-15T00:53:37;95068.28;;;5.45;89.04
74270;BME280;62754;48.252;11.654;2023-04-15T00:56:02;95070.16;;;5.43;89.13
74270;BME280;62754;48.252;11.654;2023-04-15T00:58:30;95061.91;;;5.39;89.89
74270;BME280;62754;48.252;11.654;2023-04-15T01:00:57;95067.03;;;5.39;89.24
74270;BME280;62754;48.252;11.654;2023-04-15T01:03:23;95059.13;;;5.42;88.85
74270;BME280;62754;48.252;11.654;2023-04-15T01:05:52;95063.31;;;5.54;88.54
74270;BME280;62754;48.252;11.654;2023-04-15T01:08:22;95064.22;;;5.42;89.00
74270;BME280;62754;48.252;11.654;2023-04-15T01:10:50;95061.78;;;5.41;89.48
74270;BME280;62754;48.252;11.654;2023-04-15T01:13:17;95062.59;;;5.41;89.64
74270;BME280;62754;48.252;11.654;2023-04-15T01:15:46;95066.31;;;5.37;89.78
74270;BME280;62754;48.252;11.654;2023-04-15T01:18:16;95069.56;;;5.50;88.82
74270;BME280;62754;48.252;11.654;2023-04-15T01:20:42;95062.81;;;5.60;88.45
74270;BME280;62754;48.252;11.654;2023-04-15T01:23:08;95066.09;;;5.40;88.87
74270;BME280;62754;48.252;11.654;2023-04-15T01:25:36;95064.91;;;5.33;89.35
74270;BME280;62754;48.252;11.654;2023-04-15T01:28:04;95066.78;;;5.42;88.65
74270;BME280;62754;48.252;11.654;2023-04-15T01:30:35;95054.94;;;5.30;89.11
74270;BME280;62754;48.252;11.654;2023-04-15T01:33:06;95054.00;;;5.42;88.84
74270;BME280;62754;48.252;11.654;2023-04-15T01:35:41;95058.78;;;5.36;89.22
74270;BME280;62754;48.252;11.654;2023-04-15T01:38:10;95062.16;;;5.47;88.56
74270;BME280;62754;48.252;11.654;2023-04-15T01:40:36;95058.91;;;5.34;89.38
74270;BME280;62754;48.252;11.654;2023-04-15T01:43:06;95064.47;;;5.39;89.10
74270;BME280;62754;48.252;11.654;2023-04-15T01:45:32;95061.00;;;5.40;88.89
74270;BME280;62754;48.252;11.654;2023-04-15T01:47:58;95062.25;;;5.46;88.32
74270;BME280;62754;48.252;11.654;2023-04-15T01:50:27;95062.75;;;5.40;89.16
74270;BME280;62754;48.252;11.654;2023-04-15T01:52:52;95063.09;;;5.35;89.43
74270;BME280;62754;48.252;11.654;2023-04-15T01:55:18;95060.75;;;5.43;89.29
74270;BME280;62754;48.252;11.654;2023-04-15T01:57:44;95061.22;;;5.37;89.35
74270;BME280;62754;48.252;11.654;2023-04-15T02:00:12;95061.91;;;5.39;89.19
74270;BME280;62754;48.252;11.654;2023-04-15T02:02:38;95060.28;;;5.27;89.85
74270;BME280;62754;48.252;11.654;2023-04-15T02:05:04;95065.06;;;5.32;89.61
74270;BME280;62754;48.252;11.654;2023-04-15T02:07:30;95064.59;;;5.15;90.17
74270;BME280;62754;48.252;11.654;2023-04-15T02:09:55;95061.22;;;5.26;89.58
74270;BME280;62754;48.252;11.654;2023-04-15T02:12:23;95066.66;;;5.21;90.30
74270;BME280;62754;48.252;11.654;2023-04-15T02:14:49;95067.13;;;5.15;90.46
74270;BME280;62754;48.252;11.654;2023-04-15T02:17:17;95054.59;;;5.23;90.06
74270;BME280;62754;48.252;11.654;2023-04-15T02:19:43;95064.34;;;5.18;89.97
74270;BME280;62754;48.252;11.654;2023-04-15T02:22:08;95067.03;;;5.17;90.46
74270;BME280;62754;48.252;11.654;2023-04-15T02:24:34;95064.47;;;5.28;90.01
74270;BME280;62754;48.252;11.654;2023-04-15T02:27:02;95066.31;;;5.26;89.61
74270;BME280;62754;48.252;11.654;2023-04-15T02:29:31;95060.41;;;5.14;90.09
74270;BME280;62754;48.252;11.654;2023-04-15T02:31:56;95054.72;;;5.11;89.82
74270;BME280;62754;48.252;11.654;2023-04-15T02:34:28;95061.94;;;5.17;89.55
74270;BME280;62754;48.252;11.654;2023-04-15T02:36:53;95062.94;;;5.25;89.07
74270;BME280;62754;48.252;11.654;2023-04-15T02:39:19;95066.31;;;5.15;89.33
74270;BME280;62754;48.252;11.654;2023-04-15T02:41:47;95067.03;;;5.17;89.62
74270;BME280;62754;48.252;11.654;2023-04-15T02:44:13;95064.00;;;5.23;88.86
74270;BME280;62754;48.252;11.654;2023-04-15T02:46:38;95068.88;;;5.26;88.57
74270;BME280;62754;48.252;11.654;2023-04-15T02:49:06;95067.38;;;5.23;88.29
74270;BME280;62754;48.252;11.654;2023-04-15T02:51:34;95077.72;;;5.44;87.84
74270;BME280;62754;48.252;11.654;2023-04-15T02:54:00;95067.94;;;5.49;87.31
74270;BME280;62754;48.252;11.654;2023-04-15T02:56:26;95070.16;;;5.32;88.12
74270;BME280;62754;48.252;11.654;2023-04-15T02:58:54;95076.31;;;5.40;87.58
74270;BME280;62754;48.252;11.654;2023-04-15T03:01:19;95085.59;;;5.41;87.38
74270;BME280;62754;48.252;11.654;2023-04-15T03:03:45;95084.22;;;5.48;86.96
74270;BME280;62754;48.252;11.654;2023-04-15T03:06:11;95083.28;;;5.38;87.21
74270;BME280;62754;48.252;11.654;2023-04-15T03:08:37;95079.31;;;5.34;87.92
74270;BME280;62754;48.252;11.654;2023-04-15T03:11:03;95073.53;;;5.32;88.60
74270;BME280;62754;48.252;11.654;2023-04-15T03:13:31;95085.16;;;5.36;88.04
74270;BME280;62754;48.252;11.654;2023-04-15T03:16:00;95082.59;;;5.47;87.10
74270;BME280;62754;48.252;11.654;2023-04-15T03:18:25;95081.44;;;5.40;88.34
74270;BME280;62754;48.252;11.654;2023-04-15T03:20:53;95079.31;;;5.34;88.05
74270;BME280;62754;48.252;11.654;2023-04-15T03:23:19;95082.34;;;5.28;87.90
74270;BME280;62754;48.252;11.654;2023-04-15T03:25:47;95082.13;;;5.31;87.91
74270;BME280;62754;48.252;11.654;2023-04-15T03:28:13;95086.50;;;5.29;87.91
74270;BME280;62754;48.252;11.654;2023-04-15T03:30:41;95090.47;;;5.33;87.50
74270;BME280;62754;48.252;11.654;2023-04-15T03:33:06;95075.13;;;5.33;87.55
74270;BME280;62754;48.252;11.654;2023-04-15T03:35:33;95080.03;;;5.25;87.41
74270;BME280;62754;48.252;11.654;2023-04-15T03:37:58;95086.50;;;5.18;87.95
74270;BME280;62754;48.252;11.654;2023-04-15T03:40:27;95087.47;;;5.17;88.20
74270;BME280;62754;48.252;11.654;2023-04-15T03:42:55;95087.56;;;5.26;87.45
74270;BME280;62754;48.252;11.654;2023-04-15T03:45:21;95083.75;;;5.32;87.83
74270;BME280;62754;48.252;11.654;2023-04-15T03:47:51;95082.13;;;5.31;87.00
74270;BME280;62754;48.252;11.654;2023-04-15T03:50:19;95080.63;;;5.40;86.96
74270;BME280;62754;48.252;11.654;2023-04-15T03:52:45;95080.25;;;5.33;87.36
74270;BME280;62754;48.252;11.654;2023-04-15T03:55:13;95079.56;;;5.31;87.86
74270;BME280;62754;48.252;11.654;2023-04-15T03:57:41;95077.69;;;5.33;87.28
74270;BME280;62754;48.252;11.654;2023-04-15T04:00:08;95068.78;;;5.27;87.62
74270;BME280;62754;48.252;11.654;2023-04-15T04:02:34;95077.25;;;5.28;87.04
74270;BME280;62754;48.252;11.654;2023-04-15T04:04:59;95081.06;;;5.22;87.32
74270;BME280;62754;48.252;11.654;2023-04-15T04:07:25;95074.94;;;5.25;87.82
74270;BME280;62754;48.252;11.654;2023-04-15T04:09:53;95081.97;;;5.21;88.21
74270;BME280;62754;48.252;11.654;2023-04-15T04:12:23;95080.81;;;5.25;87.40
74270;BME280;62754;48.252;11.654;2023-04-15T04:14:49;95078.75;;;5.31;87.40
74270;BME280;62754;48.252;11.654;2023-04-15T04:17:15;95077.25;;;5.39;87.15
74270;BME280;62754;48.252;11.654;2023-04-15T04:19:40;95074.22;;;5.34;86.95
74270;BME280;62754;48.252;11.654;2023-04-15T04:22:06;95085.50;;;5.32;87.45
74270;BME280;62754;48.252;11.654;2023-04-15T04:24:32;95077.34;;;5.26;87.52
74270;BME280;62754;48.252;11.654;2023-04-15T04:27:00;95080.63;;;5.17;87.56
74270;BME280;62754;48.252;11.654;2023-04-15T04:29:28;95080.47;;;5.30;87.06
74270;BME280;62754;48.252;11.654;2023-04-15T04:31:56;95086.66;;;5.27;87.17
74270;BME280;62754;48.252;11.654;2023-04-15T04:34:21;95081.53;;;5.27;86.94
74270;BME280;62754;48.252;11.654;2023-04-15T04:36:52;95077.09;;;5.18;87.62
74270;BME280;62754;48.252;11.654;2023-04-15T04:39:22;95079.91;;;5.26;86.92
74270;BME280;62754;48.252;11.654;2023-04-15T04:41:50;95081.63;;;5.15;86.91
74270;BME280;62754;48.252;11.654;2023-04-15T04:44:16;95083.03;;;5.19;86.65
74270;BME280;62754;48.252;11.654;2023-04-15T04:46:44;95084.56;;;5.33;86.24
74270;BME280;62754;48.252;11.654;2023-04-15T04:49:10;95087.31;;;5.18;86.15
74270;BME280;62754;48.252;11.654;2023-04-15T04:51:38;95081.53;;;5.27;85.94
74270;BME280;62754;48.252;11.654;2023-04-15T04:54:08;95086.97;;;5.01;86.63
74270;BME280;62754;48.252;11.654;2023-04-15T04:56:34;95086.84;;;5.02;86.81
74270;BME280;62754;48.252;11.654;2023-04-15T04:59:02;95080.13;;;5.12;86.62
74270;BME280;62754;48.252;11.654;2023-04-15T05:01:27;95081.41;;;5.07;86.12
74270;BME280;62754;48.252;11.654;2023-04-15T05:03:53;95079.22;;;5.13;86.01
74270;BME280;62754;48.252;11.654;2023-04-15T05:06:22;95080.63;;;5.17;85.80
74270;BME280;62754;48.252;11.654;2023-04-15T05:08:50;95075.03;;;5.35;85.06
74270;BME280;62754;48.252;11.654;2023-04-15T05:11:18;95080.72;;;5.38;84.55
74270;BME280;62754;48.252;11.654;2023-04-15T05:13:47;95078.28;;;5.14;84.91
74270;BME280;62754;48.252;11.654;2023-04-15T05:16:13;95073.75;;;5.18;84.05
74270;BME280;62754;48.252;11.654;2023-04-15T05:18:38;95080.81;;;5.14;84.77
74270;BME280;62754;48.252;11.654;2023-04-15T05:21:07;95076.88;;;5.21;85.00
74270;BME280;62754;48.252;11.654;2023-04-15T05:23:38;95074.78;;;5.15;84.51
74270;BME280;62754;48.252;11.654;2023-04-15T05:26:04;95077.00;;;5.20;84.79
74270;BME280;62754;48.252;11.654;2023-04-15T05:28:30;95080.25;;;5.33;83.83
74270;BME280;62754;48.252;11.654;2023-04-15T05:30:55;95083.16;;;5.17;84.08
74270;BME280;62754;48.252;11.654;2023-04-15T05:33:22;95081.88;;;5.23;84.02
74270;BME280;62754;48.252;11.654;2023-04-15T05:35:47;95091.75;;;5.27;83.74
74270;BME280;62754;48.252;11.654;2023-04-15T05:38:13;95090.84;;;5.28;84.47
74270;BME280;62754;48.252;11.654;2023-04-15T05:40:43;95095.22;;;5.38;83.90
74270;BME280;62754;48.252;11.654;2023-04-15T05:43:09;95093.03;;;5.44;83.07
74270;BME280;62754;48.252;11.654;2023-04-15T05:45:35;95089.78;;;5.42;82.99
74270;BME280;62754;48.252;11.654;2023-04-15T05:48:00;95085.81;;;5.49;82.95
74270;BME280;62754;48.252;11.654;2023-04-15T05:50:26;95088.03;;;5.43;82.56
74270;BME280;62754;48.252;11.654;2023-04-15T05:52:52;95087.56;;;5.38;82.63
74270;BME280;62754;48.252;11.654;2023-04-15T05:55:20;95089.31;;;5.37;81.95
74270;BME280;62754;48.252;11.654;2023-04-15T05:57:46;95095.47;;;5.35;82.36
74270;BME280;62754;48.252;11.654;2023-04-15T06:00:12;95092.81;;;5.47;82.26
74270;BME280;62754;48.252;11.654;2023-04-15T06:02:41;95095.59;;;5.55;82.08
74270;BME280;62754;48.252;11.654;2023-04-15T06:05:14;95095.13;;;5.61;80.70
74270;BME280;62754;48.252;11.654;2023-04-15T06:07:39;95097.09;;;5.69;81.15
74270;BME280;62754;48.252;11.654;2023-04-15T06:10:08;95098.56;;;5.71;80.05
74270;BME280;62754;48.252;11.654;2023-04-15T06:12:37;95089.09;;;5.62;80.51
74270;BME280;62754;48.252;11.654;2023-04-15T06:15:06;95096.84;;;5.61;80.63
74270;BME280;62754;48.252;11.654;2023-04-15T06:17:32;95103.34;;;5.65;80.71
74270;BME280;62754;48.252;11.654;2023-04-15T06:20:00;95101.94;;;5.83;79.76
74270;BME280;62754;48.252;11.654;2023-04-15T06:22:30;95102.53;;;5.98;79.20
74270;BME280;62754;48.252;11.654;2023-04-15T06:24:56;95097.13;;;6.23;78.22
74270;BME280;62754;48.252;11.654;2023-04-15T06:27:24;95099.22;;;6.18;77.45
74270;BME280;62754;48.252;11.654;2023-04-15T06:29:54;95102.88;;;6.47;77.36
74270;BME280;62754;48.252;11.654;2023-04-15T06:32:22;95100.00;;;6.61;76.96
74270;BME280;62754;48.252;11.654;2023-04-15T06:34:48;95104.97;;;6.74;76.59
74270;BME280;62754;48.252;11.654;2023-04-15T06:37:16;95095.59;;;6.63;77.30
74270;BME280;62754;48.252;11.654;2023-04-15T06:39:41;95097.09;;;6.66;75.56
74270;BME280;62754;48.252;11.654;2023-04-15T06:42:08;95098.22;;;6.94;74.56
74270;BME280;62754;48.252;11.654;2023-04-15T06:44:36;95104.84;;;6.76;74.52
74270;BME280;62754;48.252;11.654;2023-04-15T06:47:07;95097.84;;;6.78;74.94
74270;BME280;62754;48.252;11.654;2023-04-15T06:49:35;95105.16;;;6.82;74.47
74270;BME280;62754;48.252;11.654;2023-04-15T06:52:01;95107.84;;;7.22;72.92
74270;BME280;62754;48.252;11.654;2023-04-15T06:54:36;95104.66;;;6.88;73.73
74270;BME280;62754;48.252;11.654;2023-04-15T06:57:05;95112.34;;;7.09;72.39
74270;BME280;62754;48.252;11.654;2023-04-15T06:59:33;95121.25;;;7.14;71.67
74270;BME280;62754;48.252;11.654;2023-04-15T07:01:58;95116.00;;;7.16;72.15
74270;BME280;62754;48.252;11.654;2023-04-15T07:04:24;95112.06;;;7.12;71.94
74270;BME280;62754;48.252;11.654;2023-04-15T07:06:50;95115.53;;;7.22;71.96
74270;BME280;62754;48.252;11.654;2023-04-15T07:09:18;95114.31;;;7.26;71.75
74270;BME280;62754;48.252;11.654;2023-04-15T07:11:44;95114.25;;;7.16;71.34
74270;BME280;62754;48.252;11.654;2023-04-15T07:14:14;95116.88;;;7.26;71.88
74270;BME280;62754;48.252;11.654;2023-04-15T07:16:40;95115.38;;;7.24;69.52
74270;BME280;62754;48.252;11.654;2023-04-15T07:19:06;95123.25;;;7.32;70.96
74270;BME280;62754;48.252;11.654;2023-04-15T07:21:31;95125.56;;;7.35;70.86
74270;BME280;62754;48.252;11.654;2023-04-15T07:23:57;95127.72;;;7.60;70.89
74270;BME280;62754;48.252;11.654;2023-04-15T07:26:23;95121.94;;;7.37;69.30
74270;BME280;62754;48.252;11.654;2023-04-15T07:28:49;95122.16;;;7.55;69.24
74270;BME280;62754;48.252;11.654;2023-04-15T07:31:16;95133.47;;;7.52;67.31
74270;BME280;62754;48.252;11.654;2023-04-15T07:33:45;95125.34;;;7.78;67.88
74270;BME280;62754;48.252;11.654;2023-04-15T07:36:11;95129.97;;;7.84;67.47
74270;BME280;62754;48.252;11.654;2023-04-15T07:38:37;95130.88;;;8.13;66.78
74270;BME280;62754;48.252;11.654;2023-04-15T07:41:05;95127.22;;;8.06;66.43
74270;BME280;62754;48.252;11.654;2023-04-15T07:43:31;95125.25;;;8.38;65.62
74270;BME280;62754;48.252;11.654;2023-04-15T07:46:01;95129.66;;;8.17;65.45
74270;BME280;62754;48.252;11.654;2023-04-15T07:48:27;95127.31;;;8.44;64.86
74270;BME280;62754;48.252;11.654;2023-04-15T07:50:53;95122.28;;;8.33;66.16
74270;BME280;62754;48.252;11.654;2023-04-15T07:53:18;95121.22;;;8.36;66.24
74270;BME280;62754;48.252;11.654;2023-04-15T07:55:47;95126.47;;;8.34;65.74
74270;BME280;62754;48.252;11.654;2023-04-15T07:58:12;95123.81;;;8.65;66.68
74270;BME280;62754;48.252;11.654;2023-04-15T08:00:38;95119.06;;;8.98;65.57
74270;BME280;62754;48.252;11.654;2023-04-15T08:03:04;95119.53;;;9.31;63.38
74270;BME280;62754;48.252;11.654;2023-04-15T08:05:32;95116.63;;;9.06;62.35
74270;BME280;62754;48.252;11.654;2023-04-15T08:07:58;95117.44;;;9.07;63.52
74270;BME280;62754;48.252;11.654;2023-04-15T08:10:23;95114.06;;;9.06;63.31
74270;BME280;62754;48.252;11.654;2023-04-15T08:12:52;95114.06;;;8.97;65.11
74270;BME280;62754;48.252;11.654;2023-04-15T08:15:19;95112.69;;;9.12;64.01
74270;BME280;62754;48.252;11.654;2023-04-15T08:17:45;95114.91;;;9.53;62.54
74270;BME280;62754;48.252;11.654;2023-04-15T08:20:14;95110.47;;;9.46;63.16
74270;BME280;62754;48.252;11.654;2023-04-15T08:22:39;95116.84;;;9.42;62.78
74270;BME280;62754;48.252;11.654;2023-04-15T08:25:05;95117.53;;;9.34;63.17
74270;BME280;62754;48.252;11.654;2023-04-15T08:27:31;95115.09;;;9.70;62.45
74270;BME280;62754;48.252;11.654;2023-04-15T08:29:57;95115.97;;;9.51;62.70
74270;BME280;62754;48.252;11.654;2023-04-15T08:32:25;95122.34;;;9.56;62.37
74270;BME280;62754;48.252;11.654;2023-04-15T08:34:50;95119.94;;;9.36;62.34
74270;BME280;62754;48.252;11.654;2023-04-15T08:37:16;95118.13;;;9.55;62.20
74270;BME280;62754;48.252;11.654;2023-04-15T08:39:42;95118.06;;;9.75;62.00
74270;BME280;62754;48.252;11.654;2023-04-15T08:42:15;95115.59;;;9.46;61.67
74270;BME280;62754;48.252;11.654;2023-04-15T08:44:44;95124.03;;;9.29;63.59
74270;BME280;62754;48.252;11.654;2023-04-15T08:47:13;95121.00;;;9.43;62.85
74270;BME280;62754;48.252;11.654;2023-04-15T08:49:39;95120.09;;;9.25;63.92
74270;BME280;62754;48.252;11.654;2023-04-15T08:52:07;95124.50;;;9.61;61.96
74270;BME280;62754;48.252;11.654;2023-04-15T08:54:35;95133.69;;;9.54;63.09
74270;BME280;62754;48.252;11.654;2023-04-15T08:57:05;95132.09;;;9.53;63.50
74270;BME280;62754;48.252;11.654;2023-04-15T08:59:31;95131.31;;;9.24;63.88
74270;BME280;62754;48.252;11.654;2023-04-15T09:01:57;95135.41;;;9.73;63.19
74270;BME280;62754;48.252;11.654;2023-04-15T09:04:26;95125.66;;;9.67;62.62
74270;BME280;62754;48.252;11.654;2023-04-15T09:06:52;95133.50;;;9.75;63.21
74270;BME280;62754;48.252;11.654;2023-04-15T09:09:20;95134.66;;;9.90;62.89
74270;BME280;62754;48.252;11.654;2023-04-15T09:11:46;95131.97;;;9.82;62.97
74270;BME280;62754;48.252;11.654;2023-04-15T09:14:12;95134.72;;;9.80;63.58
74270;BME280;62754;48.252;11.654;2023-04-15T09:19:23;95143.78;;;9.75;62.76
74270;BME280;62754;48.252;11.654;2023-04-15T09:21:50;95142.03;;;9.66;62.73
74270;BME280;62754;48.252;11.654;2023-04-15T09:24:20;95141.63;;;10.07;63.60
74270;BME280;62754;48.252;11.654;2023-04-15T09:26:46;95140.00;;;10.06;63.26
74270;BME280;62754;48.252;11.654;2023-04-15T09:29:12;95137.19;;;9.99;63.56
74270;BME280;62754;48.252;11.654;2023-04-15T09:31:40;95147.09;;;9.94;62.80
74270;BME280;62754;48.252;11.654;2023-04-15T09:34:06;95146.63;;;10.09;63.32
74270;BME280;62754;48.252;11.654;2023-04-15T09:39:13;95140.69;;;9.71;61.68
74270;BME280;62754;48.252;11.654;2023-04-15T09:41:39;95142.13;;;9.37;64.00
74270;BME280;62754;48.252;11.654;2023-04-15T09:44:05;95145.13;;;9.42;63.78
74270;BME280;62754;48.252;11.654;2023-04-15T09:46:44;95145.47;;;9.56;62.52
74270;BME280;62754;48.252;11.654;2023-04-15T09:49:10;95148.94;;;9.75;62.01
74270;BME280;62754;48.252;11.654;2023-04-15T09:51:39;95141.78;;;9.69;62.73
74270;BME280;62754;48.252;11.654;2023-04-15T09:54:07;95148.09;;;9.84;63.34
74270;BME280;62754;48.252;11.654;2023-04-15T09:56:41;95156.41;;;9.58;63.03
74270;BME280;62754;48.252;11.654;2023-04-15T09:59:07;95147.59;;;9.71;62.25
74270;BME280;62754;48.252;11.654;2023-04-15T10:01:34;95149.56;;;9.49;62.92
74270;BME280;62754;48.252;11.654;2023-04-15T10:04:02;95156.47;;;9.49;62.32
74270;BME280;62754;48.252;11.654;2023-04-15T10:06:31;95158.19;;;9.58;61.38
74270;BME280;62754;48.252;11.654;2023-04-15T10:09:02;95157.69;;;9.82;62.24
74270;BME280;62754;48.252;11.654;2023-04-15T10:11:28;95156.16;;;9.98;61.42
74270;BME280;62754;48.252;11.654;2023-04-15T10:13:55;95161.63;;;9.86;62.97
74270;BME280;62754;48.252;11.654;2023-04-15T10:16:27;95148.66;;;10.15;62.49
74270;BME280;62754;48.252;11.654;2023-04-15T10:18:56;95153.00;;;10.04;60.25
74270;BME280;62754;48.252;11.654;2023-04-15T10:21:29;95154.09;;;10.02;62.42
74270;BME280;62754;48.252;11.654;2023-04-15T10:23:57;95151.53;;;10.02;61.32
74270;BME280;62754;48.252;11.654;2023-04-15T10:26:25;95160.44;;;10.17;60.89
74270;BME280;62754;48.252;11.654;2023-04-15T10:28:52;95155.00;;;10.20;61.40
74270;BME280;62754;48.252;11.654;2023-04-15T10:31:18;95171.88;;;10.32;60.75
74270;BME280;62754;48.252;11.654;2023-04-15T10:33:47;95165.97;;;10.13;60.15
74270;BME280;62754;48.252;11.654;2023-04-15T10:36:13;95162.88;;;10.09;60.20
74270;BME280;62754;48.252;11.654;2023-04-15T10:38:44;95155.63;;;9.95;60.71
74270;BME280;62754;48.252;11.654;2023-04-15T10:41:26;95162.66;;;10.02;60.26
74270;BME280;62754;48.252;11.654;2023-04-15T10:43:52;95165.66;;;10.35;59.52
74270;BME280;62754;48.252;11.654;2023-04-15T10:49:11;95171.84;;;10.15;60.46
74270;BME280;62754;48.252;11.654;2023-04-15T10:51:40;95169.94;;;10.07;60.42
74270;BME280;62754;48.252;11.654;2023-04-15T10:54:29;95164.53;;;9.64;61.63
74270;BME280;62754;48.252;11.654;2023-04-15T10:59:31;95163.25;;;9.77;60.64
74270;BME280;62754;48.252;11.654;2023-04-15T11:02:01;95168.16;;;9.80;61.04
74270;BME280;62754;48.252;11.654;2023-04-15T11:04:56;95164.88;;;9.88;60.75
74270;BME280;62754;48.252;11.654;2023-04-15T11:12:50;95170.25;;;9.94;62.11
74270;BME280;62754;48.252;11.654;2023-04-15T11:15:41;95163.94;;;9.79;61.51
74270;BME280;62754;48.252;11.654;2023-04-15T11:18:09;95169.78;;;9.72;60.60
74270;BME280;62754;48.252;11.654;2023-04-15T11:20:38;95168.16;;;9.71;62.17
74270;BME280;62754;48.252;11.654;2023-04-15T11:23:05;95161.97;;;9.64;61.74
74270;BME280;62754;48.252;11.654;2023-04-15T11:25:34;95166.81;;;9.76;62.46
74270;BME280;62754;48.252;11.654;2023-04-15T11:28:01;95170.13;;;9.96;61.60
74270;BME280;62754;48.252;11.654;2023-04-15T11:30:28;95172.59;;;9.88;61.22
74270;BME280;62754;48.252;11.654;2023-04-15T11:32:57;95174.13;;;9.71;62.00
74270;BME280;62754;48.252;11.654;2023-04-15T11:35:28;95178.47;;;9.71;61.22
74270;BME280;62754;48.252;11.654;2023-04-15T11:37:55;95174.47;;;9.49;61.17
74270;BME280;62754;48.252;11.654;2023-04-15T11:40:25;95170.78;;;9.51;61.02
74270;BME280;62754;48.252;11.654;2023-04-15T11:45:49;95188.25;;;9.57;61.36
74270;BME280;62754;48.252;11.654;2023-04-15T11:48:16;95183.91;;;9.58;64.39
74270;BME280;62754;48.252;11.654;2023-04-15T11:50:44;95183.25;;;9.27;65.18
74270;BME280;62754;48.252;11.654;2023-04-15T11:53:12;95188.56;;;9.26;64.93
74270;BME280;62754;48.252;11.654;2023-04-15T11:55:49;95187.91;;;9.14;66.09
74270;BME280;62754;48.252;11.654;2023-04-15T11:58:23;95191.41;;;9.13;63.90
74270;BME280;62754;48.252;11.654;2023-04-15T12:01:02;95193.00;;;9.24;63.05
74270;BME280;62754;48.252;11.654;2023-04-15T12:06:14;95188.41;;;9.08;64.53
74270;BME280;62754;48.252;11.654;2023-04-15T12:16:41;95191.53;;;9.02;65.39
74270;BME280;62754;48.252;11.654;2023-04-15T12:19:13;95198.03;;;8.96;66.46
74270;BME280;62754;48.252;11.654;2023-04-15T12:21:43;95198.56;;;9.00;66.36
74270;BME280;62754;48.252;11.654;2023-04-15T12:24:10;95200.47;;;8.98;66.14
74270;BME280;62754;48.252;11.654;2023-04-15T12:26:47;95204.91;;;8.96;65.91
74270;BME280;62754;48.252;11.654;2023-04-15T12:29:15;95202.22;;;8.88;66.48
74270;BME280;62754;48.252;11.654;2023-04-15T12:34:15;95206.94;;;8.92;66.33
74270;BME280;62754;48.252;11.654;2023-04-15T12:36:41;95217.50;;;8.89;66.56
74270;BME280;62754;48.252;11.654;2023-04-15T12:39:11;95224.22;;;8.81;66.95
74270;BME280;62754;48.252;11.654;2023-04-15T12:41:37;95225.47;;;8.86;66.20
74270;BME280;62754;48.252;11.654;2023-04-15T12:44:08;95238.06;;;8.99;65.59
74270;BME280;62754;48.252;11.654;2023-04-15T12:46:33;95234.00;;;8.87;65.10
74270;BME280;62754;48.252;11.654;2023-04-15T12:49:00;95238.97;;;8.79;65.94
74270;BME280;62754;48.252;11.654;2023-04-15T12:51:28;95244.53;;;8.84;67.19
74270;BME280;62754;48.252;11.654;2023-04-15T12:53:53;95263.41;;;8.64;69.93
74270;BME280;62754;48.252;11.654;2023-04-15T12:56:21;95260.50;;;8.47;72.35
74270;BME280;62754;48.252;11.654;2023-04-15T12:58:49;95251.34;;;8.54;73.17
74270;BME280;62754;48.252;11.654;2023-04-15T13:01:15;95258.06;;;8.46;72.59
74270;BME280;62754;48.252;11.654;2023-04-15T13:03:41;95259.03;;;8.45;73.10
74270;BME280;62754;48.252;11.654;2023-04-15T13:06:15;95254.72;;;8.55;72.24
74270;BME280;62754;48.252;11.654;2023-04-15T13:08:41;95262.31;;;8.56;72.80
74270;BME280;62754;48.252;11.654;2023-04-15T13:11:06;95257.41;;;8.53;70.69
74270;BME280;62754;48.252;11.654;2023-04-15T13:13:35;95262.41;;;8.45;72.58
74270;BME280;62754;48.252;11.654;2023-04-15T13:16:03;95262.72;;;8.61;72.16
74270;BME280;62754;48.252;11.654;2023-04-15T13:18:28;95270.41;;;8.61;70.75
74270;BME280;62754;48.252;11.654;2023-04-15T13:20:54;95270.84;;;8.67;71.36
74270;BME280;62754;48.252;11.654;2023-04-15T13:23:22;95278.97;;;8.72;70.78
74270;BME280;62754;48.252;11.654;2023-04-15T13:25:50;95270.63;;;8.89;69.49
74270;BME280;62754;48.252;11.654;2023-04-15T13:28:16;95275.63;;;9.00;69.18
74270;BME280;62754;48.252;11.654;2023-04-15T13:30:42;95282.16;;;9.14;69.20
74270;BME280;62754;48.252;11.654;2023-04-15T13:33:10;95281.34;;;9.03;68.36
74270;BME280;62754;48.252;11.654;2023-04-15T13:35:36;95282.28;;;9.31;67.71